Time;durP1;ratioP1;P1;durP2;ratioP2;P2;SDS_P1;SDS_P2;PMS_P1;PMS_P2;Temp;Humidity;BMP_temperature;BMP_pressure;BME280_temperature;BME280_humidity;BME280_pressure;Samples;Min_cycle;Max_cycle;Signal;HPM_P1;HPM_P2
2023/10/18 16:37:58;;;;;;;;;2.33;1.67;;;;;24.74;39.56;98797.09;5670237;23;46288;-73
2023/10/18 16:40:23;;;;;;;;;2.67;2.33;;;;;24.74;39.40;98797.91;4874333;29;46356;-71
2023/10/18 16:42:49;;;;;;;;;0.00;0.00;;;;;24.75;39.37;98801.34;4880016;29;45423;-71
2023/10/18 16:45:15;;;;;;;;;1.00;1.00;;;;;24.76;39.46;98805.59;4880684;29;45492;-71
2023/10/18 16:47:44;;;;;;;;;2.00;2.00;;;;;24.78;39.51;98805.34;4881088;29;45444;-71
2023/10/18 16:50:14;;;;;;;;;2.00;1.00;;;;;24.78;39.38;98816.00;4879156;29;45438;-71
2023/10/18 16:52:43;;;;;;;;;1.00;1.00;;;;;24.79;39.59;98817.59;4880018;29;45490;-71
2023/10/18 16:55:11;;;;;;;;;1.00;1.00;;;;;24.80;39.42;98821.88;4880532;29;45337;-70
2023/10/18 16:57:39;;;;;;;;;1.00;1.00;;;;;24.81;39.45;98818.16;4881304;29;45462;-71
2023/10/18 17:00:15;;;;;;;;;2.00;2.00;;;;;24.80;39.67;98827.22;4880809;29;46282;-71
2023/10/18 17:02:46;;;;;;;;;2.67;2.67;;;;;24.82;39.58;98822.44;4881094;29;45356;-71
2023/10/18 17:05:12;;;;;;;;;1.00;1.00;;;;;24.82;39.62;98825.09;4880993;29;45395;-71
2023/10/18 17:07:45;;;;;;;;;2.00;1.67;;;;;24.82;39.75;98827.75;4881117;29;45281;-73
2023/10/18 17:10:19;;;;;;;;;3.67;0.67;;;;;24.81;39.92;98836.78;4880221;29;46479;-71
2023/10/18 17:12:45;;;;;;;;;2.00;2.00;;;;;24.81;39.65;98834.91;4880688;29;45224;-71
2023/10/18 17:15:12;;;;;;;;;2.00;2.00;;;;;24.86;39.75;98842.16;4880764;29;45401;-71
2023/10/18 17:17:39;;;;;;;;;1.67;1.67;;;;;24.83;39.73;98840.78;4880565;29;45534;-70
2023/10/18 17:20:14;;;;;;;;;2.00;2.00;;;;;24.87;39.75;98853.59;4880804;29;45341;-71
2023/10/18 17:22:42;;;;;;;;;1.67;1.67;;;;;24.90;39.77;98855.78;4876458;29;45419;-71
2023/10/18 17:25:08;;;;;;;;;1.67;1.33;;;;;24.89;39.98;98857.63;4874239;29;45402;-73
2023/10/18 17:27:34;;;;;;;;;0.67;0.67;;;;;24.91;39.79;98860.84;4880713;29;45300;-73
2023/10/18 17:29:59;;;;;;;;;0.67;0.67;;;;;24.92;39.86;98861.63;4880774;29;46829;-71
2023/10/18 17:32:24;;;;;;;;;1.67;1.67;;;;;24.92;39.88;98857.13;4880439;29;45182;-71
2023/10/18 17:34:50;;;;;;;;;1.67;1.67;;;;;24.93;39.61;98872.03;4881037;29;45419;-71
2023/10/18 17:37:15;;;;;;;;;0.67;0.67;;;;;24.93;39.89;98882.66;4880538;29;45514;-71
2023/10/18 17:39:41;;;;;;;;;1.00;1.00;;;;;24.92;39.88;98877.59;4879909;29;46804;-72
2023/10/18 17:42:07;;;;;;;;;1.00;1.00;;;;;24.96;40.08;98884.03;4880508;29;45217;-71
2023/10/18 17:44:32;;;;;;;;;0.67;0.67;;;;;24.95;39.91;98891.22;4880639;29;45364;-74
2023/10/18 17:46:57;;;;;;;;;1.33;1.33;;;;;24.94;40.12;98881.63;4893509;29;46096;-76
2023/10/18 17:49:23;;;;;;;;;3.00;1.00;;;;;24.96;40.23;98900.78;4879957;29;49134;-73
2023/10/18 17:51:48;;;;;;;;;1.67;1.67;;;;;24.95;39.95;98890.41;4877688;29;45729;-74
2023/10/18 17:54:18;;;;;;;;;0.67;0.67;;;;;24.98;40.05;98910.41;4879123;29;45606;-74
2023/10/18 17:56:44;;;;;;;;;2.00;2.00;;;;;24.93;40.01;98908.47;4877641;29;45559;-74
2023/10/18 17:59:09;;;;;;;;;3.00;2.00;;;;;24.96;40.15;98914.09;4880051;29;45392;-74
2023/10/18 18:01:36;;;;;;;;;2.00;1.67;;;;;24.92;40.04;98902.34;4880758;29;45388;-74
2023/10/18 18:04:02;;;;;;;;;0.67;0.67;;;;;24.94;39.71;98907.41;4880325;29;45432;-71
2023/10/18 18:06:27;;;;;;;;;2.00;2.00;;;;;24.98;40.00;98918.38;4880452;29;45416;-70
2023/10/18 18:08:52;;;;;;;;;1.00;1.00;;;;;24.98;40.06;98923.69;4879899;29;45395;-71
2023/10/18 18:11:28;;;;;;;;;1.33;1.33;;;;;24.98;40.02;98924.50;4880263;29;45427;-71
2023/10/18 18:13:58;;;;;;;;;1.67;1.67;;;;;24.96;40.03;98924.72;4880002;29;45461;-71
2023/10/18 18:16:23;;;;;;;;;1.67;0.67;;;;;24.99;40.02;98926.09;4870552;29;45523;-72
2023/10/18 18:18:51;;;;;;;;;1.67;1.67;;;;;25.00;40.03;98930.38;4879736;29;46001;-71
2023/10/18 18:21:18;;;;;;;;;0.67;0.67;;;;;24.99;40.20;98931.41;4879568;29;45523;-71
2023/10/18 18:23:46;;;;;;;;;1.00;1.00;;;;;24.99;39.75;98938.59;4879809;29;45466;-72
2023/10/18 18:26:14;;;;;;;;;2.67;1.67;;;;;24.99;40.14;98947.38;4880181;29;45357;-72
2023/10/18 18:28:41;;;;;;;;;1.67;0.00;;;;;25.00;40.38;98949.00;4879619;29;46507;-71
2023/10/18 18:31:07;;;;;;;;;2.33;1.00;;;;;24.98;40.13;98937.81;4880035;29;45294;-72
2023/10/18 18:33:32;;;;;;;;;2.00;2.00;;;;;25.00;40.12;98946.34;4880581;29;46042;-72
2023/10/18 18:35:57;;;;;;;;;1.00;1.00;;;;;24.99;40.32;98933.25;4879572;29;45511;-72
2023/10/18 18:38:23;;;;;;;;;0.67;0.67;;;;;25.02;39.95;98954.91;4879738;29;45280;-71
2023/10/18 18:40:49;;;;;;;;;1.67;1.67;;;;;25.02;40.14;98949.59;4879550;29;45902;-71
2023/10/18 18:43:15;;;;;;;;;2.00;1.00;;;;;24.99;40.28;98950.03;4880057;29;45426;-71
2023/10/18 18:45:42;;;;;;;;;1.67;1.67;;;;;25.04;40.14;98963.44;4880080;29;45464;-76
2023/10/18 18:48:07;;;;;;;;;1.00;1.00;;;;;25.01;40.18;98958.59;4879232;29;46361;-76
2023/10/18 18:50:32;;;;;;;;;1.00;1.00;;;;;24.99;40.36;98960.69;4879608;29;45603;-71
2023/10/18 18:52:58;;;;;;;;;1.00;1.00;;;;;25.05;40.29;98974.88;4879843;29;45404;-72
2023/10/18 18:55:25;;;;;;;;;0.00;0.00;;;;;25.06;40.21;98971.16;4880005;29;45462;-72
2023/10/18 18:57:50;;;;;;;;;0.67;0.67;;;;;25.05;40.31;98965.06;4879333;29;45669;-72
2023/10/18 19:00:18;;;;;;;;;0.67;0.67;;;;;25.07;40.46;98986.09;4879690;29;45332;-72
2023/10/18 19:02:47;;;;;;;;;0.67;0.33;;;;;25.05;40.67;98993.50;4879519;29;45468;-73
2023/10/18 19:05:13;;;;;;;;;1.00;1.00;;;;;25.05;40.12;98989.00;4879257;29;45479;-72
2023/10/18 19:07:41;;;;;;;;;0.33;0.33;;;;;25.05;40.26;99002.31;4879646;29;46112;-72
2023/10/18 19:10:09;;;;;;;;;0.67;0.67;;;;;25.07;40.24;99007.38;4878134;29;45443;-72
2023/10/18 19:12:35;;;;;;;;;0.67;0.67;;;;;25.01;40.38;99006.50;4879815;29;45516;-75
2023/10/18 19:15:00;;;;;;;;;1.00;1.00;;;;;25.09;40.17;99015.09;4880839;29;45422;-76
2023/10/18 19:17:26;;;;;;;;;0.67;0.67;;;;;25.09;40.31;99010.59;4882849;29;45405;-73
2023/10/18 19:19:51;;;;;;;;;1.67;1.00;;;;;25.07;40.66;99018.00;4882516;29;45842;-75
2023/10/18 19:22:19;;;;;;;;;1.00;1.00;;;;;25.06;40.23;99019.88;4883273;29;45427;-73
2023/10/18 19:24:45;;;;;;;;;0.67;0.67;;;;;25.09;40.23;99034.53;4882735;29;45475;-74
2023/10/18 19:27:10;;;;;;;;;0.67;0.00;;;;;25.12;40.08;99038.56;4882706;29;45406;-76
2023/10/18 19:29:35;;;;;;;;;1.00;1.00;;;;;25.12;40.13;99038.56;4882547;29;45369;-73
2023/10/18 19:32:00;;;;;;;;;1.33;0.67;;;;;25.10;40.24;99041.47;4882840;29;45278;-74
2023/10/18 19:34:26;;;;;;;;;0.67;0.67;;;;;25.11;40.28;99047.59;4882493;29;45561;-73
2023/10/18 19:36:52;;;;;;;;;0.33;0.33;;;;;25.11;40.46;99051.06;4882606;29;46942;-74
2023/10/18 19:39:17;;;;;;;;;1.00;1.00;;;;;25.12;40.30;99065.97;4882394;29;45335;-74
2023/10/18 19:41:42;;;;;;;;;2.00;2.00;;;;;25.10;40.22;99060.09;4882204;29;45641;-73
2023/10/18 19:44:11;;;;;;;;;0.00;0.00;;;;;25.12;40.24;99060.66;4882566;29;45434;-73
2023/10/18 19:46:37;;;;;;;;;1.67;1.67;;;;;25.05;39.98;99057.38;4882194;29;46984;-72
2023/10/18 19:49:04;;;;;;;;;1.33;1.33;;;;;25.12;40.24;99073.97;4881257;29;45463;-73
2023/10/18 19:51:30;;;;;;;;;1.67;0.67;;;;;25.12;40.24;99073.16;4882441;29;45281;-75
2023/10/18 19:53:55;;;;;;;;;1.00;1.00;;;;;25.14;40.32;99082.50;4871228;29;45635;-71
2023/10/18 19:56:21;;;;;;;;;2.00;1.00;;;;;25.15;40.46;99076.13;4866303;29;45300;-70
2023/10/18 19:58:46;;;;;;;;;1.00;1.00;;;;;25.12;40.47;99078.47;4869099;29;45249;-73
2023/10/18 20:01:12;;;;;;;;;1.00;0.00;;;;;25.15;40.33;99080.66;4868320;29;45223;-71
2023/10/18 20:03:39;;;;;;;;;0.00;0.00;;;;;25.14;40.52;99077.19;4871209;29;45164;-70
2023/10/18 20:06:04;;;;;;;;;1.00;1.00;;;;;25.15;40.47;99076.13;4873610;29;46402;-72
2023/10/18 20:08:30;;;;;;;;;1.00;1.00;;;;;25.15;40.56;99083.31;4881421;29;45524;-72
2023/10/18 20:10:55;;;;;;;;;0.67;0.67;;;;;25.17;40.92;99079.34;4881906;29;45587;-72
2023/10/18 20:13:20;;;;;;;;;2.00;2.00;;;;;25.16;40.86;99088.38;4871661;29;45613;-74
2023/10/18 20:15:46;;;;;;;;;0.67;0.67;;;;;25.18;40.64;99088.16;4866329;29;47061;-73
2023/10/18 20:18:14;;;;;;;;;0.67;0.67;;;;;25.13;40.70;99072.13;4867987;29;45316;-73
2023/10/18 20:20:40;;;;;;;;;1.67;0.67;;;;;25.06;40.85;99075.75;4864505;29;45410;-74
2023/10/18 20:23:06;;;;;;;;;1.00;1.00;;;;;25.12;40.80;99089.13;4878270;29;45261;-74
2023/10/18 20:25:32;;;;;;;;;1.33;0.67;;;;;25.08;40.86;99091.47;4879008;29;46072;-74
2023/10/18 20:27:58;;;;;;;;;1.00;1.00;;;;;25.01;41.02;99086.31;4881265;29;45261;-76
2023/10/18 20:30:24;;;;;;;;;4.33;1.67;;;;;25.04;41.09;99098.31;4882153;29;45359;-79
2023/10/18 20:32:50;;;;;;;;;1.00;1.00;;;;;25.02;41.17;99098.56;4881658;29;45387;-76
2023/10/18 20:35:16;;;;;;;;;2.00;2.00;;;;;25.03;41.14;99105.50;4875367;29;45942;-79
2023/10/18 20:37:42;;;;;;;;;1.67;1.67;;;;;25.04;41.65;99106.28;4881285;29;45431;-81
2023/10/18 20:40:09;;;;;;;;;2.00;1.00;;;;;25.04;41.54;99103.63;4882649;29;45384;-81
2023/10/18 20:42:35;;;;;;;;;2.00;0.67;;;;;25.05;41.79;99106.06;4880986;29;45443;-78
2023/10/18 20:45:08;;;;;;;;;1.67;0.00;;;;;25.09;42.21;99103.72;4882100;29;46072;-80
2023/10/18 20:47:33;;;;;;;;;0.67;0.67;;;;;25.11;42.51;99106.16;4880155;29;45500;-79
2023/10/18 20:50:04;;;;;;;;;1.67;0.67;;;;;25.12;42.71;99107.75;4882688;29;45316;-79
2023/10/18 20:52:31;;;;;;;;;0.00;0.00;;;;;25.09;42.81;99095.72;4882087;29;45469;-80
2023/10/18 20:54:56;;;;;;;;;0.00;0.00;;;;;25.12;42.80;99102.41;4881923;29;47135;-79
2023/10/18 20:57:21;;;;;;;;;1.00;1.00;;;;;25.15;42.90;99115.25;4882194;29;45396;-77
2023/10/18 20:59:47;;;;;;;;;0.67;0.67;;;;;25.07;43.49;99101.31;4881913;29;45387;-76
2023/10/18 21:02:22;;;;;;;;;2.00;1.00;;;;;25.16;43.13;99115.00;4881400;29;45344;-75
2023/10/18 21:04:48;;;;;;;;;0.00;0.00;;;;;25.15;43.37;99123.22;4874624;29;46671;-77
2023/10/18 21:07:23;;;;;;;;;0.00;0.00;;;;;25.19;43.50;99111.03;4880638;29;45339;-77
2023/10/18 21:09:52;;;;;;;;;0.00;0.00;;;;;25.17;43.51;99108.63;4879026;29;45483;-79
2023/10/18 21:12:20;;;;;;;;;0.00;0.00;;;;;25.20;43.21;99110.00;4865487;29;45598;-78
2023/10/18 21:14:46;;;;;;;;;0.00;0.00;;;;;25.23;43.55;99112.19;4880909;29;45430;-78
2023/10/18 21:17:11;;;;;;;;;1.00;1.00;;;;;25.23;43.53;99114.84;4874270;29;45570;-75
2023/10/18 21:19:37;;;;;;;;;1.00;1.00;;;;;25.25;43.37;99119.91;4867408;29;45497;-78
2023/10/18 21:22:05;;;;;;;;;1.00;0.00;;;;;25.25;43.65;99107.41;4871845;29;45569;-77
2023/10/18 21:24:31;;;;;;;;;0.00;0.00;;;;;25.25;43.34;99103.94;4880485;29;46276;-77
2023/10/18 21:26:56;;;;;;;;;1.00;0.00;;;;;25.24;43.46;99111.09;4881117;29;45367;-77
2023/10/18 21:29:22;;;;;;;;;3.00;0.00;;;;;25.24;43.49;99113.00;4880616;29;45444;-77
2023/10/18 21:31:47;;;;;;;;;0.00;0.00;;;;;25.23;43.33;99114.84;4869754;29;45531;-77
2023/10/18 21:34:13;;;;;;;;;1.00;1.00;;;;;25.24;43.40;99119.09;4880995;29;45944;-78
2023/10/18 21:36:39;;;;;;;;;0.67;0.67;;;;;25.25;43.61;99107.41;4881108;29;45551;-79
2023/10/18 21:39:06;;;;;;;;;0.33;0.33;;;;;25.28;43.42;99109.59;4873436;29;45806;-74
2023/10/18 21:41:32;;;;;;;;;1.33;0.00;;;;;25.29;43.12;99119.16;4877243;29;45580;-75
2023/10/18 21:43:57;;;;;;;;;3.00;0.00;;;;;25.29;42.24;99113.84;4875141;29;46377;-74
2023/10/18 21:46:23;;;;;;;;;2.00;0.00;;;;;25.31;42.24;99116.28;4880263;29;45539;-75
2023/10/18 21:48:49;;;;;;;;;0.00;0.00;;;;;25.29;41.85;99108.53;4872752;29;45403;-74
2023/10/18 21:51:17;;;;;;;;;0.00;0.00;;;;;25.29;41.74;99113.84;4880839;29;45472;-75
2023/10/18 21:53:44;;;;;;;;;1.00;1.00;;;;;25.27;42.13;99113.28;4869909;29;46656;-76
2023/10/18 21:56:14;;;;;;;;;1.33;0.00;;;;;25.33;41.80;99121.34;4880371;29;45545;-74
2023/10/18 21:58:39;;;;;;;;;0.67;0.67;;;;;25.33;41.99;99116.03;4880355;29;45873;-74
2023/10/18 22:01:26;;;;;;;;;1.00;1.00;;;;;25.32;41.74;99115.22;4864111;29;45402;-75
2023/10/18 22:03:51;;;;;;;;;0.00;0.00;;;;;25.33;41.64;99118.69;4877281;29;45517;-74
2023/10/18 22:06:17;;;;;;;;;1.00;0.67;;;;;25.32;41.66;99107.22;4879922;29;45565;-78
2023/10/18 22:08:44;;;;;;;;;0.00;0.00;;;;;25.32;41.94;99106.44;4880349;29;45483;-77
2023/10/18 22:11:13;;;;;;;;;1.67;1.67;;;;;25.28;41.46;99101.59;4880368;29;45504;-79
2023/10/18 22:13:40;;;;;;;;;0.67;0.67;;;;;25.16;41.25;99080.41;4879801;29;45823;-79
2023/10/18 22:16:10;;;;;;;;;0.00;0.00;;;;;25.27;41.36;99109.81;4880698;29;45445;-79
